createdAt,value
2022-08-26T00:00:36.111Z,101097.13
2022-08-26T00:05:39.658Z,101101.44
2022-08-26T00:10:43.727Z,101088.94
2022-08-26T00:15:46.032Z,101096.34
2022-08-26T00:20:48.104Z,101085.22
2022-08-26T00:25:51.659Z,101084.25
2022-08-26T00:30:53.595Z,101082.19
2022-08-26T00:35:55.702Z,101070.75
2022-08-26T00:40:59.442Z,101070.41
2022-08-26T00:46:07.987Z,101068.69
2022-08-26T00:51:15.168Z,101069.41
2022-08-26T00:56:22.031Z,101072.41
2022-08-26T01:01:24.169Z,101065.84
2022-08-26T01:06:26.925Z,101062.56
2022-08-26T01:11:31.454Z,101065.84
2022-08-26T01:16:33.933Z,101068.34
2022-08-26T01:21:43.813Z,101067.91
2022-08-26T01:26:48.696Z,101062.94
2022-08-26T01:31:54.342Z,101073.75
2022-08-26T01:37:01.833Z,101064.91
2022-08-26T01:42:10.344Z,101057.09
2022-08-26T01:47:14.964Z,101052.88
2022-08-26T01:52:22.231Z,101045.34
2022-08-26T01:57:28.057Z,101035.66
2022-08-26T02:02:30.402Z,101053.81
2022-08-26T02:07:33.802Z,101046.34
2022-08-26T02:12:38.401Z,101053.72
2022-08-26T02:17:44.099Z,101044.41
2022-08-26T02:22:46.001Z,101046.69
2022-08-26T02:27:49.545Z,101046.31
2022-08-26T02:32:52.038Z,101043.28
2022-08-26T02:37:54.297Z,101035.25
2022-08-26T02:42:58.282Z,101034.53
2022-08-26T02:48:09.877Z,101038.50
2022-08-26T02:53:13.386Z,101034.22
2022-08-26T02:58:17.435Z,101031.81
2022-08-26T03:03:19.907Z,101026.78
2022-08-26T03:08:24.921Z,101024.16
2022-08-26T03:13:28.904Z,101018.16
2022-08-26T03:18:30.976Z,101030.06
2022-08-26T03:23:32.923Z,101021.19
2022-08-26T03:28:36.394Z,101018.84
2022-08-26T03:33:38.499Z,101015.50
2022-08-26T03:38:40.195Z,101014.22
2022-08-26T03:43:44.611Z,101013.34
2022-08-26T03:48:47.388Z,101015.31
2022-08-26T03:53:49.404Z,101010.94
2022-08-26T03:58:52.974Z,101001.56
2022-08-26T04:03:55.389Z,101010.66
2022-08-26T04:08:59.085Z,100995.56
2022-08-26T04:14:06.078Z,100992.25
2022-08-26T04:19:09.747Z,100999.22
2022-08-26T04:24:14.108Z,101004.44
2022-08-26T04:29:21.328Z,100997.03
2022-08-26T04:34:24.288Z,100990.91
2022-08-26T04:39:29.277Z,100997.66
2022-08-26T04:44:35.675Z,100999.00
2022-08-26T04:49:37.734Z,100994.94
2022-08-26T04:54:39.474Z,100997.72
2022-08-26T04:59:45.297Z,101001.44
2022-08-26T05:04:48.206Z,101002.34
2022-08-26T05:09:53.796Z,101008.25
2022-08-26T05:14:58.288Z,101012.16
2022-08-26T05:20:00.325Z,101021.91
2022-08-26T05:25:02.562Z,101022.38
2022-08-26T05:30:07.456Z,101023.72
2022-08-26T05:35:09.418Z,101028.16
2022-08-26T05:40:12.589Z,101030.72
2022-08-26T05:45:16.785Z,101020.53
2022-08-26T05:50:20.498Z,101028.44
2022-08-26T05:55:22.642Z,101027.16
2022-08-26T06:00:26.629Z,101028.25
2022-08-26T06:05:29.232Z,101031.09
2022-08-26T06:10:32.841Z,101027.25
2022-08-26T06:15:39.684Z,101028.56
2022-08-26T06:20:54.582Z,101025.13
2022-08-26T06:26:00.627Z,101022.19
2022-08-26T06:31:04.275Z,101024.16
2022-08-26T06:36:07.071Z,101024.50
2022-08-26T06:41:09.177Z,101020.50
2022-08-26T06:46:14.953Z,101029.31
2022-08-26T06:51:18.931Z,101025.41
2022-08-26T06:56:22.902Z,101025.47
2022-08-26T07:01:30.703Z,101025.50
2022-08-26T07:06:37.215Z,101021.91
2022-08-26T07:11:41.084Z,101004.56
2022-08-26T07:16:44.902Z,101011.66
2022-08-26T07:21:46.622Z,101006.53
2022-08-26T07:26:51.484Z,100999.38
2022-08-26T07:31:56.369Z,101003.72
2022-08-26T07:36:59.194Z,100991.38
2022-08-26T07:42:03.849Z,100994.09
2022-08-26T07:47:25.627Z,100987.38
2022-08-26T07:52:30.077Z,100992.84
2022-08-26T07:57:32.638Z,100997.41
2022-08-26T08:02:35.703Z,101000.91
2022-08-26T08:07:44.310Z,100997.81
2022-08-26T08:12:47.367Z,100992.03
2022-08-26T08:17:51.538Z,100983.84
2022-08-26T08:22:54.335Z,100988.66
2022-08-26T08:27:56.962Z,100981.94
2022-08-26T08:33:00.026Z,100979.22
2022-08-26T08:38:02.067Z,100978.63
2022-08-26T08:43:10.135Z,100964.44
2022-08-26T08:48:19.789Z,100962.28
2022-08-26T08:53:31.948Z,100974.97
2022-08-26T08:58:50.626Z,100975.78
2022-08-26T09:04:11.351Z,100968.69
2022-08-26T09:09:22.552Z,100968.47
2022-08-26T09:14:27.068Z,100961.84
2022-08-26T09:19:38.356Z,100962.31
2022-08-26T09:24:42.125Z,100968.94
2022-08-26T09:29:51.337Z,100953.47
2022-08-26T09:34:59.749Z,100945.75
2022-08-26T09:40:20.759Z,100946.63
2022-08-26T09:45:28.788Z,100929.44
2022-08-26T09:50:36.234Z,100921.41
2022-08-26T09:55:39.753Z,100920.53
2022-08-26T10:00:52.927Z,100916.72
2022-08-26T10:05:59.333Z,100886.44
2022-08-26T10:11:05.922Z,100864.25
2022-08-26T10:16:16.606Z,100852.31
2022-08-26T10:21:25.645Z,100867.53
2022-08-26T10:26:38.598Z,100859.47
2022-08-26T10:31:46.756Z,100853.34
2022-08-26T10:37:13.857Z,100845.13
2022-08-26T10:42:25.184Z,100831.06
2022-08-26T10:47:34.757Z,100817.19
2022-08-26T10:52:51.266Z,100809.81
2022-08-26T10:58:00.234Z,100805.88
2022-08-26T11:03:22.049Z,100813.94
2022-08-26T11:08:29.652Z,100811.47
2022-08-26T11:14:00.854Z,100800.03
2022-08-26T11:19:03.643Z,100813.34
2022-08-26T11:24:07.373Z,100807.88
2022-08-26T11:29:13.328Z,100803.31
2022-08-26T11:34:15.636Z,100803.84
2022-08-26T11:39:22.905Z,100789.75
2022-08-26T11:44:27.221Z,100789.78
2022-08-26T11:49:31.397Z,100786.44
2022-08-26T11:54:37.827Z,100784.19
2022-08-26T11:59:41.426Z,100781.69
2022-08-26T12:04:47.675Z,100809.19
2022-08-26T12:09:56.627Z,100794.34
2022-08-26T12:15:13.725Z,100770.50
2022-08-26T12:20:28.065Z,100784.06
2022-08-26T12:25:36.006Z,100813.44
2022-08-26T12:30:38.607Z,100857.84
2022-08-26T12:35:40.880Z,100864.72
2022-08-26T12:40:47.433Z,100855.84
2022-08-26T12:45:56.890Z,100863.25
2022-08-26T12:51:00.966Z,100835.84
2022-08-26T12:56:20.061Z,100839.53
2022-08-26T13:01:22.965Z,100827.66
2022-08-26T13:06:27.300Z,100820.69
2022-08-26T13:11:33.002Z,100829.53
2022-08-26T13:16:35.444Z,100840.50
2022-08-26T13:21:42.191Z,100850.63
2022-08-26T13:26:47.493Z,100862.41
2022-08-26T13:31:50.449Z,100882.50
2022-08-26T13:36:54.805Z,100936.38
2022-08-26T13:41:58.606Z,100954.44
2022-08-26T13:47:00.359Z,100963.97
2022-08-26T13:52:02.340Z,100943.59
2022-08-26T13:57:06.266Z,100916.56
2022-08-26T14:02:08.684Z,100951.22
2022-08-26T14:07:12.299Z,100925.28
2022-08-26T14:12:15.866Z,100917.22
2022-08-26T14:17:21.302Z,100894.75
2022-08-26T14:22:23.513Z,100853.44
2022-08-26T14:27:26.993Z,100837.25
2022-08-26T14:32:29.349Z,100811.56
2022-08-26T14:37:31.133Z,100802.69
2022-08-26T14:42:34.873Z,100792.38
2022-08-26T14:47:36.592Z,100776.53
2022-08-26T14:52:38.696Z,100766.94
2022-08-26T14:57:42.306Z,100756.41
2022-08-26T15:02:45.126Z,100745.63
2022-08-26T15:07:47.446Z,100739.56
2022-08-26T15:12:52.158Z,100727.31
2022-08-26T15:17:53.902Z,100720.97
2022-08-26T15:22:55.715Z,100704.84
2022-08-26T15:27:58.832Z,100702.22
2022-08-26T15:33:00.565Z,100684.75
2022-08-26T15:38:02.830Z,100667.09
2022-08-26T15:43:25.617Z,100656.63
2022-08-26T15:48:28.342Z,100655.84
2022-08-26T15:53:32.667Z,100655.13
2022-08-26T15:58:36.237Z,100654.59
2022-08-26T16:03:38.263Z,100664.63
2022-08-26T16:08:40.153Z,100671.88
2022-08-26T16:13:43.625Z,100687.97
2022-08-26T16:18:45.947Z,100703.84
2022-08-26T16:23:48.316Z,100710.97
2022-08-26T16:28:51.772Z,100725.09
2022-08-26T16:33:53.417Z,100725.66
2022-08-26T16:38:56.126Z,100721.81
2022-08-26T16:43:59.838Z,100733.28
2022-08-26T16:49:02.362Z,100742.91
2022-08-26T16:54:04.745Z,100740.34
2022-08-26T16:59:10.741Z,100751.19
2022-08-26T17:04:12.505Z,100770.63
2022-08-26T17:09:14.310Z,100784.00
2022-08-26T17:14:17.811Z,100768.88
2022-08-26T17:19:20.679Z,100755.28
2022-08-26T17:24:22.441Z,100750.34
2022-08-26T17:29:25.559Z,100746.72
2022-08-26T17:34:27.464Z,100733.59
2022-08-26T17:39:30.115Z,100733.78
2022-08-26T17:44:33.343Z,100735.00
2022-08-26T17:49:35.077Z,100724.34
2022-08-26T17:54:37.256Z,100723.41
2022-08-26T17:59:41.069Z,100712.06
2022-08-26T18:04:42.866Z,100698.69
2022-08-26T18:09:45.180Z,100697.28
2022-08-26T18:14:48.641Z,100714.19
2022-08-26T18:19:50.918Z,100718.88
2022-08-26T18:24:58.220Z,100704.59
2022-08-26T18:30:02.798Z,100706.06
2022-08-26T18:35:05.153Z,100700.19
2022-08-26T18:40:10.148Z,100700.69
2022-08-26T18:45:16.395Z,100698.56
2022-08-26T18:50:18.841Z,100694.88
2022-08-26T18:55:21.060Z,100675.44
2022-08-26T19:00:24.869Z,100690.81
2022-08-26T19:05:26.977Z,100700.44
2022-08-26T19:10:28.735Z,100709.47
2022-08-26T19:15:32.836Z,100722.94
2022-08-26T19:20:37.932Z,100748.84
2022-08-26T19:25:41.961Z,100768.75
2022-08-26T19:30:49.087Z,100772.25
2022-08-26T19:35:53.402Z,100776.22
2022-08-26T19:40:57.072Z,100789.75
2022-08-26T19:46:00.524Z,100783.25
2022-08-26T19:51:02.749Z,100777.00
2022-08-26T19:56:04.718Z,100774.47
2022-08-26T20:01:08.410Z,100770.97
2022-08-26T20:06:12.306Z,100772.88
2022-08-26T20:11:16.806Z,100768.84
2022-08-26T20:16:20.218Z,100763.84
2022-08-26T20:21:22.292Z,100773.66
2022-08-26T20:26:24.680Z,100776.94
2022-08-26T20:31:29.160Z,100775.09
2022-08-26T20:36:32.466Z,100777.31
2022-08-26T20:41:34.250Z,100782.59
2022-08-26T20:46:37.493Z,100788.00
2022-08-26T20:51:39.861Z,100792.66
2022-08-26T20:56:41.756Z,100795.00
2022-08-26T21:01:47.318Z,100801.81
2022-08-26T21:06:52.294Z,100798.25
2022-08-26T21:11:54.789Z,100788.16
2022-08-26T21:16:58.395Z,100807.19
2022-08-26T21:22:00.739Z,100795.78
2022-08-26T21:27:02.807Z,100794.50
2022-08-26T21:32:06.833Z,100780.75
2022-08-26T21:37:08.950Z,100789.91
2022-08-26T21:42:18.822Z,100784.66
2022-08-26T21:47:22.611Z,100785.31
2022-08-26T21:52:24.664Z,100805.19
2022-08-26T21:57:28.527Z,100802.13
2022-08-26T22:02:32.437Z,100791.34
2022-08-26T22:07:34.609Z,100794.13
2022-08-26T22:12:36.820Z,100788.28
2022-08-26T22:17:39.972Z,100782.16
2022-08-26T22:22:42.052Z,100782.53
2022-08-26T22:27:44.774Z,100770.66
2022-08-26T22:32:48.203Z,100769.81
2022-08-26T22:37:49.955Z,100775.34
2022-08-26T22:42:55.688Z,100762.97
2022-08-26T22:48:04.520Z,100748.00
2022-08-26T22:53:06.498Z,100724.00
2022-08-26T22:58:08.812Z,100712.19
2022-08-26T23:03:13.764Z,100699.19
2022-08-26T23:08:16.883Z,100692.31
2022-08-26T23:13:19.414Z,100687.56
2022-08-26T23:18:23.028Z,100690.56
2022-08-26T23:23:25.301Z,100698.72
2022-08-26T23:28:28.348Z,100695.00
2022-08-26T23:33:31.923Z,100695.78
2022-08-26T23:38:34.016Z,100710.50
2022-08-26T23:43:37.185Z,100721.84
2022-08-26T23:48:40.865Z,100730.28
2022-08-26T23:53:42.930Z,100731.09
2022-08-26T23:58:47.100Z,100726.56
